Time;durP1;ratioP1;P1;durP2;ratioP2;P2;SDS_P1;SDS_P2;PMS_P1;PMS_P2;Temp;Humidity;BMP_temperature;BMP_pressure;BME280_temperature;BME280_humidity;BME280_pressure;Samples;Min_cycle;Max_cycle;Signal;HPM_P1;HPM_P2
2021/08/15 00:00:09;;;;;;;58.90;3.70;;;20.70;1.00;;;;;;5070950;28;20456;-70
2021/08/15 00:02:36;;;;;;;58.27;2.93;;;20.70;1.00;;;;;;5070103;28;20549;-70
2021/08/15 00:05:04;;;;;;;59.70;3.93;;;20.70;1.00;;;;;;5071019;28;20553;-70
2021/08/15 00:07:32;;;;;;;58.63;3.30;;;20.60;1.00;;;;;;5070816;28;20445;-70
2021/08/15 00:09:59;;;;;;;58.80;3.07;;;20.60;1.00;;;;;;5070758;28;20537;-70
2021/08/15 00:12:25;;;;;;;60.10;4.67;;;20.60;1.00;;;;;;5072646;28;20480;-70
2021/08/15 00:14:52;;;;;;;59.77;3.80;;;20.60;1.00;;;;;;5074140;28;20548;-70
2021/08/15 00:17:19;;;;;;;58.57;3.37;;;20.60;1.00;;;;;;5074409;28;20531;-70
2021/08/15 00:19:46;;;;;;;58.77;3.93;;;20.50;1.00;;;;;;5074433;28;20894;-70
2021/08/15 00:22:13;;;;;;;58.47;3.07;;;20.50;1.00;;;;;;5074449;28;20905;-70
2021/08/15 00:24:41;;;;;;;60.70;4.20;;;20.50;1.00;;;;;;5073478;28;20535;-70
2021/08/15 00:27:08;;;;;;;58.33;3.20;;;20.50;1.00;;;;;;5074429;28;20449;-70
2021/08/15 00:29:35;;;;;;;58.73;4.00;;;20.50;1.00;;;;;;5073890;28;20489;-70
2021/08/15 00:32:02;;;;;;;59.57;3.87;;;20.40;1.00;;;;;;5074639;28;20555;-70
2021/08/15 00:34:30;;;;;;;59.63;3.30;;;20.40;1.00;;;;;;5074359;28;20539;-70
2021/08/15 00:36:56;;;;;;;58.50;2.90;;;20.30;1.00;;;;;;5073461;28;20448;-70
2021/08/15 00:39:23;;;;;;;59.37;4.00;;;20.20;1.00;;;;;;5074358;28;20532;-70
2021/08/15 00:41:51;;;;;;;58.63;3.57;;;20.20;1.00;;;;;;5074042;28;20562;-70
2021/08/15 00:44:18;;;;;;;58.77;3.90;;;20.10;1.00;;;;;;5073941;28;20963;-70
2021/08/15 00:46:45;;;;;;;58.83;3.57;;;20.10;1.00;;;;;;5073635;28;20443;-70
2021/08/15 00:49:12;;;;;;;60.03;3.47;;;20.20;1.00;;;;;;5073389;28;20520;-70
2021/08/15 00:51:39;;;;;;;59.60;3.67;;;20.10;1.00;;;;;;5073812;28;20468;-70
2021/08/15 00:54:06;;;;;;;58.93;3.57;;;20.10;1.00;;;;;;5073774;28;20451;-70
2021/08/15 00:56:33;;;;;;;59.77;3.77;;;20.10;1.00;;;;;;5073910;28;20444;-70
2021/08/15 00:59:06;;;;;;;59.97;4.53;;;20.10;1.00;;;;;;5073293;28;20538;-70
2021/08/15 01:01:34;;;;;;;59.23;3.53;;;20.10;1.00;;;;;;5073865;28;20474;-70
2021/08/15 01:04:03;;;;;;;58.87;3.40;;;20.10;1.00;;;;;;5073432;28;20556;-70
2021/08/15 01:06:33;;;;;;;59.07;3.70;;;20.00;1.00;;;;;;5073774;28;20453;-70
2021/08/15 01:09:01;;;;;;;58.80;3.20;;;20.00;1.00;;;;;;5073438;28;20487;-70
2021/08/15 01:11:28;;;;;;;59.10;3.13;;;20.00;1.00;;;;;;5073212;28;20973;-70
2021/08/15 01:13:54;;;;;;;59.73;3.30;;;20.00;1.00;;;;;;5073359;28;20482;-70
2021/08/15 01:16:23;;;;;;;61.27;3.60;;;20.00;1.00;;;;;;5073073;28;20455;-70
2021/08/15 01:18:49;;;;;;;60.70;2.80;;;20.00;1.00;;;;;;5073475;28;20544;-70
2021/08/15 01:21:16;;;;;;;58.80;3.47;;;19.90;1.00;;;;;;5072606;28;20467;-70
2021/08/15 01:23:45;;;;;;;59.23;3.40;;;19.90;1.00;;;;;;5073227;28;20448;-70
2021/08/15 01:26:15;;;;;;;59.17;4.47;;;19.90;1.00;;;;;;5073027;28;20546;-70
2021/08/15 01:28:44;;;;;;;59.33;3.80;;;19.90;1.00;;;;;;5073240;28;20484;-70
2021/08/15 01:31:12;;;;;;;58.17;2.50;;;19.90;1.00;;;;;;5072108;28;20650;-70
2021/08/15 01:33:40;;;;;;;58.53;3.10;;;19.80;1.00;;;;;;5073093;28;20447;-70
2021/08/15 01:36:09;;;;;;;58.00;2.80;;;19.80;1.00;;;;;;5072973;28;20886;-70
2021/08/15 01:38:38;;;;;;;59.30;3.80;;;19.80;1.00;;;;;;5072911;28;20444;-70
2021/08/15 01:41:06;;;;;;;58.60;3.17;;;19.80;1.00;;;;;;5072221;28;20468;-70
2021/08/15 01:43:46;;;;;;;58.17;3.00;;;19.80;1.00;;;;;;5071174;28;20554;-71
2021/08/15 01:46:14;;;;;;;59.10;3.00;;;19.70;1.00;;;;;;5072914;28;20447;-70
2021/08/15 01:48:41;;;;;;;60.30;3.83;;;19.60;1.00;;;;;;5072575;28;20484;-70
2021/08/15 01:51:08;;;;;;;58.87;3.40;;;19.60;1.00;;;;;;5072062;28;20552;-70
2021/08/15 01:53:35;;;;;;;62.40;4.13;;;19.60;1.00;;;;;;5072445;28;20443;-70
2021/08/15 01:56:01;;;;;;;59.40;4.17;;;19.60;1.00;;;;;;5072227;28;20488;-70
2021/08/15 01:58:28;;;;;;;60.40;4.10;;;19.60;1.00;;;;;;5072489;28;20517;-70
2021/08/15 02:00:55;;;;;;;60.90;6.20;;;19.50;1.00;;;;;;5071964;28;20467;-70
2021/08/15 02:03:23;;;;;;;58.80;3.27;;;19.40;1.00;;;;;;5072349;28;20932;-71
2021/08/15 02:05:50;;;;;;;60.90;3.73;;;19.40;1.00;;;;;;5072523;28;20810;-70
2021/08/15 02:08:17;;;;;;;58.63;3.20;;;19.40;1.00;;;;;;5072418;28;20543;-70
2021/08/15 02:10:45;;;;;;;58.87;3.00;;;19.30;1.00;;;;;;5071116;28;20447;-70
2021/08/15 02:13:12;;;;;;;59.67;3.40;;;19.30;1.00;;;;;;5072560;28;20470;-70
2021/08/15 02:15:39;;;;;;;59.17;3.63;;;19.20;1.00;;;;;;5072412;28;20447;-70
2021/08/15 02:18:06;;;;;;;58.73;3.23;;;19.20;1.00;;;;;;5072366;28;20530;-70
2021/08/15 02:20:35;;;;;;;59.20;4.07;;;19.20;1.00;;;;;;5071796;28;20505;-70
2021/08/15 02:23:03;;;;;;;59.30;3.60;;;19.20;1.00;;;;;;5071576;28;20467;-70
2021/08/15 02:25:30;;;;;;;60.17;3.40;;;19.20;1.00;;;;;;5072008;28;20618;-70
2021/08/15 02:27:57;;;;;;;58.60;2.83;;;19.20;1.00;;;;;;5072246;28;20830;-70
2021/08/15 02:30:25;;;;;;;60.20;3.80;;;19.20;1.00;;;;;;5071841;28;20585;-70
2021/08/15 02:32:53;;;;;;;59.50;3.67;;;19.20;1.00;;;;;;5071201;28;20974;-70
2021/08/15 02:35:20;;;;;;;60.00;3.53;;;19.20;1.00;;;;;;5071303;28;20458;-70
2021/08/15 02:37:51;;;;;;;59.17;3.67;;;19.20;1.00;;;;;;5071838;28;20541;-70
2021/08/15 02:40:19;;;;;;;58.97;2.70;;;19.20;1.00;;;;;;5071875;28;20534;-70
2021/08/15 02:42:47;;;;;;;58.60;2.90;;;19.20;1.00;;;;;;5071972;28;20467;-70
2021/08/15 02:45:16;;;;;;;58.60;3.07;;;19.20;1.00;;;;;;5071205;28;20534;-70
2021/08/15 02:47:43;;;;;;;60.27;5.50;;;19.20;1.00;;;;;;5072286;28;20534;-70
2021/08/15 02:50:11;;;;;;;59.10;3.40;;;19.20;1.00;;;;;;5071495;28;20482;-70
2021/08/15 02:52:38;;;;;;;58.77;3.37;;;19.20;1.00;;;;;;5071545;28;20467;-70
2021/08/15 02:55:08;;;;;;;58.70;3.07;;;19.10;1.00;;;;;;5071713;28;20447;-70
2021/08/15 02:57:34;;;;;;;59.10;3.50;;;19.10;1.00;;;;;;5071278;28;20531;-70
2021/08/15 03:00:01;;;;;;;59.10;3.57;;;19.10;1.00;;;;;;5071429;28;20905;-70
2021/08/15 03:02:28;;;;;;;58.43;2.67;;;19.10;1.00;;;;;;5071570;28;20501;-70
2021/08/15 03:04:55;;;;;;;60.17;4.33;;;19.10;1.00;;;;;;5071494;28;20549;-70
2021/08/15 03:07:23;;;;;;;58.33;3.33;;;19.10;1.00;;;;;;5071102;28;20537;-70
2021/08/15 03:09:50;;;;;;;58.47;2.80;;;19.00;1.00;;;;;;5070999;28;20487;-70
2021/08/15 03:12:18;;;;;;;60.87;5.00;;;19.00;1.00;;;;;;5071969;28;20574;-70
2021/08/15 03:14:45;;;;;;;58.63;3.50;;;19.00;1.00;;;;;;5071680;28;20940;-70
2021/08/15 03:17:13;;;;;;;59.97;4.87;;;19.00;1.00;;;;;;5071418;28;21011;-70
2021/08/15 03:19:40;;;;;;;59.27;3.17;;;18.90;1.00;;;;;;5070307;28;20547;-70
2021/08/15 03:22:07;;;;;;;60.27;4.80;;;18.90;1.00;;;;;;5071599;28;20470;-70
2021/08/15 03:24:35;;;;;;;59.70;3.50;;;18.90;1.00;;;;;;5071846;28;20539;-70
2021/08/15 03:27:03;;;;;;;58.80;2.90;;;18.90;1.00;;;;;;5071304;28;20942;-70
2021/08/15 03:29:32;;;;;;;59.63;3.37;;;18.80;1.00;;;;;;5071108;28;20894;-70
2021/08/15 03:31:58;;;;;;;58.27;3.07;;;18.80;1.00;;;;;;5070966;28;20463;-70
2021/08/15 03:34:25;;;;;;;58.60;3.47;;;18.80;1.00;;;;;;5071113;28;20457;-70
2021/08/15 03:36:52;;;;;;;59.20;4.00;;;18.70;1.00;;;;;;5071003;28;20542;-70
2021/08/15 03:39:21;;;;;;;58.67;3.30;;;18.70;1.00;;;;;;5071131;28;20446;-70
2021/08/15 03:41:48;;;;;;;58.70;3.40;;;18.70;1.00;;;;;;5071424;28;20467;-70
2021/08/15 03:44:15;;;;;;;59.00;3.20;;;18.70;1.00;;;;;;5071328;28;20447;-70
2021/08/15 03:46:44;;;;;;;58.70;3.37;;;18.70;1.00;;;;;;5071768;28;20447;-70
2021/08/15 03:49:12;;;;;;;58.80;3.50;;;18.70;1.00;;;;;;5074613;28;20846;-69
2021/08/15 03:51:39;;;;;;;59.43;3.53;;;18.70;1.00;;;;;;5074845;28;20474;-70
2021/08/15 03:54:06;;;;;;;59.30;3.73;;;18.70;1.00;;;;;;5075101;28;20878;-70
2021/08/15 03:56:32;;;;;;;59.50;4.13;;;18.60;1.00;;;;;;5074980;28;20534;-70
2021/08/15 03:58:59;;;;;;;58.37;3.20;;;18.60;1.00;;;;;;5074984;28;20457;-70
2021/08/15 04:01:26;;;;;;;58.90;3.87;;;18.50;1.00;;;;;;5074063;28;20801;-70
2021/08/15 04:03:55;;;;;;;58.67;3.03;;;18.50;1.00;;;;;;5074427;28;20484;-70
2021/08/15 04:06:22;;;;;;;58.43;3.47;;;18.50;1.00;;;;;;5074418;28;20449;-70
2021/08/15 04:08:50;;;;;;;59.10;4.40;;;18.50;1.00;;;;;;5074949;28;20883;-70
2021/08/15 04:11:18;;;;;;;59.20;3.60;;;18.50;1.00;;;;;;5073812;28;20545;-71
2021/08/15 04:13:45;;;;;;;59.47;3.77;;;18.50;1.00;;;;;;5074363;28;20442;-70
2021/08/15 04:16:12;;;;;;;58.53;3.30;;;18.50;1.00;;;;;;5074574;28;20516;-70
2021/08/15 04:18:39;;;;;;;59.00;4.00;;;18.50;1.00;;;;;;5074434;28;20439;-70
2021/08/15 04:21:07;;;;;;;59.00;4.50;;;18.50;1.00;;;;;;5073204;28;20553;-70
2021/08/15 04:23:34;;;;;;;59.10;3.50;;;18.50;1.00;;;;;;5074499;28;20536;-70
2021/08/15 04:26:01;;;;;;;59.10;3.80;;;18.50;1.00;;;;;;5074432;28;20541;-70
2021/08/15 04:28:28;;;;;;;58.60;3.00;;;18.50;1.00;;;;;;5074253;28;20451;-70
2021/08/15 04:30:56;;;;;;;59.30;4.10;;;18.50;1.00;;;;;;5073669;28;20521;-70
2021/08/15 04:33:24;;;;;;;58.77;3.20;;;18.50;1.00;;;;;;5073688;28;20530;-70
2021/08/15 04:35:52;;;;;;;59.10;3.40;;;18.50;1.00;;;;;;5074322;28;20451;-70
2021/08/15 04:38:20;;;;;;;58.80;2.80;;;18.50;1.00;;;;;;5074085;28;20443;-70
2021/08/15 04:40:48;;;;;;;59.30;3.70;;;18.50;1.00;;;;;;5073687;28;20526;-70
2021/08/15 04:43:15;;;;;;;60.07;4.07;;;18.50;1.00;;;;;;5073449;28;20549;-70
2021/08/15 04:45:42;;;;;;;58.60;3.20;;;18.50;1.00;;;;;;5074163;28;20896;-70
2021/08/15 04:48:09;;;;;;;58.73;3.63;;;18.50;1.00;;;;;;5073779;28;20473;-70
2021/08/15 04:50:36;;;;;;;59.27;3.67;;;18.50;1.00;;;;;;5073654;28;20581;-70
2021/08/15 04:53:03;;;;;;;58.70;3.10;;;18.50;1.00;;;;;;5074060;28;20454;-70
2021/08/15 04:55:31;;;;;;;59.50;3.60;;;18.50;1.00;;;;;;5072919;28;20482;-70
2021/08/15 04:57:58;;;;;;;59.33;5.03;;;18.50;1.00;;;;;;5073554;28;20483;-70
2021/08/15 05:00:26;;;;;;;59.27;3.00;;;18.50;1.00;;;;;;5073942;28;20800;-70
2021/08/15 05:02:53;;;;;;;59.03;3.70;;;18.50;1.00;;;;;;5073839;28;20475;-70
2021/08/15 05:05:20;;;;;;;60.40;3.57;;;18.50;1.00;;;;;;5073338;28;20545;-70
2021/08/15 05:07:47;;;;;;;59.77;4.30;;;18.50;1.00;;;;;;5072876;28;20460;-70
2021/08/15 05:10:14;;;;;;;59.33;3.97;;;18.50;1.00;;;;;;5073267;28;20518;-70
2021/08/15 05:12:42;;;;;;;58.40;3.43;;;18.50;1.00;;;;;;5073828;28;20467;-70
2021/08/15 05:15:10;;;;;;;59.20;3.67;;;18.50;1.00;;;;;;5073759;28;20532;-70
2021/08/15 05:17:37;;;;;;;58.67;3.30;;;18.60;1.00;;;;;;5072651;28;20930;-70
2021/08/15 05:20:05;;;;;;;59.47;3.40;;;18.50;1.00;;;;;;5072943;28;20450;-70
2021/08/15 05:22:32;;;;;;;60.37;3.77;;;18.60;1.00;;;;;;5073196;28;20467;-71
2021/08/15 05:24:59;;;;;;;58.27;3.03;;;18.60;1.00;;;;;;5073265;28;20449;-71
2021/08/15 05:27:25;;;;;;;59.97;4.60;;;18.60;1.00;;;;;;5073304;28;20462;-71
2021/08/15 05:29:54;;;;;;;58.27;3.10;;;18.50;1.00;;;;;;5072264;28;20570;-71
2021/08/15 05:32:20;;;;;;;58.90;3.27;;;18.60;1.00;;;;;;5073099;28;20561;-71
2021/08/15 05:34:47;;;;;;;59.20;3.73;;;18.60;1.00;;;;;;5073128;28;20538;-71
2021/08/15 05:37:14;;;;;;;59.97;5.30;;;18.60;1.00;;;;;;5072867;28;20546;-71
2021/08/15 05:39:41;;;;;;;58.67;3.23;;;18.70;1.00;;;;;;5072917;28;20875;-71
2021/08/15 05:42:08;;;;;;;58.90;3.40;;;18.70;1.00;;;;;;5072058;28;20553;-71
2021/08/15 05:44:35;;;;;;;58.80;3.23;;;18.80;1.00;;;;;;5072797;28;20454;-71
2021/08/15 05:47:04;;;;;;;59.27;3.67;;;18.90;1.00;;;;;;5072693;28;20482;-71
2021/08/15 05:49:31;;;;;;;58.70;2.80;;;18.90;1.00;;;;;;5072159;28;20544;-70
2021/08/15 05:51:58;;;;;;;58.80;3.37;;;19.00;1.00;;;;;;5071790;28;20499;-70
2021/08/15 05:54:25;;;;;;;58.00;2.97;;;19.00;1.00;;;;;;5072396;28;20534;-70
2021/08/15 05:56:52;;;;;;;58.97;2.83;;;19.10;1.00;;;;;;5072634;28;20964;-70
2021/08/15 05:59:19;;;;;;;58.43;3.50;;;19.20;1.00;;;;;;5072114;28;20581;-70
2021/08/15 06:01:46;;;;;;;59.40;4.30;;;19.20;1.00;;;;;;5072174;28;20546;-70
2021/08/15 06:04:14;;;;;;;58.40;3.50;;;19.20;1.00;;;;;;5071314;28;20486;-70
2021/08/15 06:06:41;;;;;;;59.17;3.20;;;19.30;1.00;;;;;;5072231;28;20482;-70
2021/08/15 06:09:08;;;;;;;58.43;3.00;;;19.40;1.00;;;;;;5071641;28;20443;-70
2021/08/15 06:11:35;;;;;;;59.30;3.80;;;19.40;1.00;;;;;;5072722;28;20499;-70
2021/08/15 06:14:02;;;;;;;58.70;3.13;;;19.50;1.00;;;;;;5072463;28;20499;-70
2021/08/15 06:16:29;;;;;;;58.60;3.40;;;19.50;1.00;;;;;;5072132;28;20947;-70
2021/08/15 06:18:56;;;;;;;58.83;3.00;;;19.60;1.00;;;;;;5070387;28;20863;-70
2021/08/15 06:21:24;;;;;;;58.73;3.20;;;19.60;1.00;;;;;;5069991;28;21047;-70
2021/08/15 06:23:51;;;;;;;58.60;3.13;;;19.60;1.00;;;;;;5070625;28;20538;-70
2021/08/15 06:26:19;;;;;;;59.27;3.67;;;19.70;1.00;;;;;;5070348;28;20447;-70
2021/08/15 06:28:46;;;;;;;59.30;3.93;;;19.70;1.00;;;;;;5070425;28;20947;-70
2021/08/15 06:31:13;;;;;;;57.87;2.80;;;19.80;1.00;;;;;;5069871;28;20566;-70
2021/08/15 06:33:39;;;;;;;58.80;3.43;;;19.90;1.00;;;;;;5070775;28;20538;-70
2021/08/15 06:36:06;;;;;;;58.90;3.20;;;20.00;1.00;;;;;;5072309;28;20481;-70
2021/08/15 06:38:34;;;;;;;58.30;3.50;;;20.10;1.00;;;;;;5072270;28;20531;-70
2021/08/15 06:41:01;;;;;;;58.47;3.23;;;20.10;1.00;;;;;;5071916;28;20551;-70
2021/08/15 06:43:28;;;;;;;59.00;4.00;;;20.20;1.00;;;;;;5072170;28;20444;-70
2021/08/15 06:45:55;;;;;;;59.83;4.83;;;20.30;1.00;;;;;;5071808;28;20455;-70
2021/08/15 06:48:23;;;;;;;58.67;3.20;;;20.40;1.00;;;;;;5072310;28;20793;-70
2021/08/15 06:50:53;;;;;;;58.60;2.93;;;20.40;1.00;;;;;;5071775;28;21010;-70
2021/08/15 06:53:21;;;;;;;58.77;3.40;;;20.50;1.00;;;;;;5072249;28;20521;-70
2021/08/15 06:55:49;;;;;;;59.30;4.00;;;20.60;1.00;;;;;;5071991;28;20443;-70
2021/08/15 06:58:16;;;;;;;58.27;3.03;;;20.70;1.00;;;;;;5071969;28;20533;-70
2021/08/15 07:00:43;;;;;;;59.30;3.60;;;20.70;1.00;;;;;;5071713;28;20536;-70
2021/08/15 07:03:10;;;;;;;58.93;4.80;;;20.80;1.00;;;;;;5071911;28;20450;-70
2021/08/15 07:05:37;;;;;;;58.73;3.03;;;20.90;1.00;;;;;;5071971;28;20540;-70
2021/08/15 07:08:05;;;;;;;58.47;3.57;;;20.90;1.00;;;;;;5071837;28;20539;-70
2021/08/15 07:10:31;;;;;;;58.90;3.27;;;21.00;1.00;;;;;;5071525;28;20828;-68
2021/08/15 07:13:01;;;;;;;58.43;3.87;;;21.10;1.00;;;;;;5071566;28;20449;-69
2021/08/15 07:15:29;;;;;;;58.90;4.87;;;21.20;1.00;;;;;;5071847;28;20462;-69
2021/08/15 07:17:57;;;;;;;60.17;4.53;;;21.30;1.00;;;;;;5071844;28;20490;-69
2021/08/15 07:20:24;;;;;;;58.70;4.37;;;21.40;1.00;;;;;;5072198;28;20529;-70
2021/08/15 07:22:51;;;;;;;58.37;2.97;;;21.40;1.00;;;;;;5075895;28;20550;-70
2021/08/15 07:25:19;;;;;;;59.97;4.23;;;21.60;1.00;;;;;;5075796;28;20918;-70
2021/08/15 07:27:46;;;;;;;58.83;3.23;;;21.60;1.00;;;;;;5075626;28;20454;-70
2021/08/15 07:30:16;;;;;;;58.43;2.90;;;21.70;1.00;;;;;;5075339;28;20485;-70
2021/08/15 07:32:50;;;;;;;59.10;3.97;;;21.80;1.00;;;;;;5075522;28;20550;-70
2021/08/15 07:35:17;;;;;;;58.87;4.00;;;21.90;1.00;;;;;;5075810;28;20445;-70
2021/08/15 07:37:44;;;;;;;58.90;3.37;;;22.00;1.00;;;;;;5075551;28;20537;-70
2021/08/15 07:40:12;;;;;;;60.27;3.30;;;22.10;1.00;;;;;;5074977;28;20534;-70
2021/08/15 07:42:39;;;;;;;58.80;3.60;;;22.30;1.00;;;;;;5075590;28;20557;-70
2021/08/15 07:45:07;;;;;;;59.53;3.60;;;22.40;1.00;;;;;;5075421;28;21026;-70
2021/08/15 07:47:36;;;;;;;58.73;3.30;;;22.50;1.00;;;;;;5075238;28;20447;-70
2021/08/15 07:50:03;;;;;;;58.70;3.53;;;22.60;1.00;;;;;;5074951;28;21014;-70
2021/08/15 07:52:30;;;;;;;59.00;4.00;;;22.70;1.00;;;;;;5075070;28;21066;-70
2021/08/15 07:54:56;;;;;;;59.20;3.70;;;22.80;1.00;;;;;;5075618;28;20796;-70
2021/08/15 07:57:23;;;;;;;59.47;3.93;;;22.90;1.00;;;;;;5075187;28;20533;-70
2021/08/15 07:59:50;;;;;;;58.13;3.20;;;23.00;1.00;;;;;;5074967;28;21000;-70
2021/08/15 08:02:18;;;;;;;58.70;3.30;;;23.10;1.00;;;;;;5075051;28;20839;-70
2021/08/15 08:04:48;;;;;;;58.47;4.10;;;23.20;1.00;;;;;;5074978;28;20878;-70
2021/08/15 08:07:18;;;;;;;58.80;3.03;;;23.40;1.00;;;;;;5075102;28;20540;-70
2021/08/15 08:09:45;;;;;;;58.97;3.83;;;23.50;1.00;;;;;;5075067;28;20996;-70
2021/08/15 08:12:12;;;;;;;58.77;3.60;;;23.70;1.00;;;;;;5074860;28;20845;-70
2021/08/15 08:14:39;;;;;;;58.80;3.47;;;23.80;1.00;;;;;;5074856;28;20480;-70
2021/08/15 08:17:06;;;;;;;59.40;3.40;;;23.90;1.00;;;;;;5074868;28;20529;-70
2021/08/15 08:19:32;;;;;;;59.93;5.07;;;24.00;1.00;;;;;;5074467;28;20443;-70
2021/08/15 08:22:01;;;;;;;57.87;3.00;;;24.10;1.00;;;;;;5074600;28;20506;-70
2021/08/15 08:24:28;;;;;;;58.70;3.30;;;24.20;1.00;;;;;;5074807;28;20473;-70
2021/08/15 08:26:55;;;;;;;63.37;5.73;;;24.30;1.00;;;;;;5074638;28;20452;-70
2021/08/15 08:29:21;;;;;;;59.53;4.70;;;24.40;1.00;;;;;;5074470;28;20449;-70
2021/08/15 08:31:48;;;;;;;59.17;3.93;;;24.50;1.00;;;;;;5074233;28;20491;-70
2021/08/15 08:34:16;;;;;;;61.47;4.10;;;24.60;1.00;;;;;;5074171;28;20446;-70
2021/08/15 08:36:42;;;;;;;58.50;3.30;;;24.70;1.00;;;;;;5074686;28;20530;-70
2021/08/15 08:39:10;;;;;;;58.70;3.30;;;24.80;1.00;;;;;;5074307;28;20970;-70
2021/08/15 08:41:39;;;;;;;59.10;3.50;;;24.90;1.00;;;;;;5074306;28;21003;-69
2021/08/15 08:44:08;;;;;;;58.80;3.43;;;25.10;1.00;;;;;;5074367;28;20446;-69
2021/08/15 08:46:35;;;;;;;58.87;3.13;;;25.20;1.00;;;;;;5073921;28;20539;-69
2021/08/15 08:49:03;;;;;;;59.60;3.70;;;25.30;1.00;;;;;;5074110;28;20548;-69
2021/08/15 08:51:31;;;;;;;59.83;3.83;;;25.40;1.00;;;;;;5073860;28;20510;-69
2021/08/15 08:53:59;;;;;;;59.67;3.80;;;25.50;1.00;;;;;;5074239;28;20459;-70
2021/08/15 08:56:27;;;;;;;58.90;3.30;;;25.70;1.00;;;;;;5074083;28;20532;-70
2021/08/15 08:58:54;;;;;;;59.97;4.43;;;25.90;1.00;;;;;;5074018;28;20445;-70
2021/08/15 09:01:21;;;;;;;59.17;3.67;;;26.20;1.00;;;;;;5073588;28;21040;-70
2021/08/15 09:03:48;;;;;;;58.80;3.20;;;26.30;1.00;;;;;;5073977;28;20464;-70
2021/08/15 09:06:20;;;;;;;58.80;3.20;;;26.50;1.00;;;;;;5074133;28;20451;-70
2021/08/15 09:08:47;;;;;;;60.30;3.77;;;26.60;1.00;;;;;;5073721;28;20940;-70
2021/08/15 09:11:16;;;;;;;63.10;5.20;;;26.70;1.00;;;;;;5073464;28;20490;-70
2021/08/15 09:13:45;;;;;;;58.70;2.93;;;26.80;1.00;;;;;;5073618;28;20445;-70
2021/08/15 09:16:12;;;;;;;59.17;4.10;;;27.00;1.00;;;;;;5073857;28;20455;-69
2021/08/15 09:18:39;;;;;;;60.20;3.43;;;27.10;1.00;;;;;;5073729;28;20448;-69
2021/08/15 09:21:06;;;;;;;59.53;3.57;;;27.20;1.00;;;;;;5073407;28;20549;-70
2021/08/15 09:23:35;;;;;;;59.37;2.93;;;27.20;1.00;;;;;;5073591;28;20448;-70
2021/08/15 09:26:13;;;;;;;58.57;3.00;;;27.30;1.00;;;;;;5073493;28;20453;-70
2021/08/15 09:28:40;;;;;;;60.70;3.40;;;27.40;1.00;;;;;;5073360;28;20450;-70
2021/08/15 09:31:24;;;;;;;61.10;5.37;;;27.50;1.00;;;;;;5073123;28;20919;-70
2021/08/15 09:33:52;;;;;;;59.20;3.90;;;27.70;1.00;;;;;;5073285;28;20457;-70
2021/08/15 09:36:30;;;;;;;58.30;3.20;;;27.80;1.00;;;;;;5073183;28;20484;-70
2021/08/15 09:39:00;;;;;;;59.57;3.70;;;28.00;1.00;;;;;;5073167;28;20526;-70
2021/08/15 09:41:28;;;;;;;60.37;4.23;;;28.20;1.00;;;;;;5073221;28;20467;-70
2021/08/15 09:44:21;;;;;;;58.90;3.20;;;28.30;1.00;;;;;;5072427;28;20454;-68
2021/08/15 09:47:05;;;;;;;60.13;5.00;;;28.60;1.00;;;;;;5073322;28;20538;-69
2021/08/15 09:49:37;;;;;;;58.90;3.00;;;28.80;1.00;;;;;;5072901;28;20538;-68
2021/08/15 09:52:05;;;;;;;59.20;3.43;;;29.00;1.00;;;;;;5073177;28;20486;-68
2021/08/15 09:54:33;;;;;;;59.43;4.37;;;29.20;1.00;;;;;;5073185;28;20502;-68
2021/08/15 09:57:04;;;;;;;58.90;3.47;;;29.50;1.00;;;;;;5072937;28;20440;-68
2021/08/15 09:59:34;;;;;;;59.20;3.40;;;29.70;1.00;;;;;;5072728;28;20447;-69
2021/08/15 10:02:07;;;;;;;59.07;3.13;;;30.10;1.00;;;;;;5072934;28;20467;-69
2021/08/15 10:04:34;;;;;;;60.30;4.83;;;30.40;1.00;;;;;;5072754;28;20491;-68
2021/08/15 10:07:02;;;;;;;58.97;4.37;;;30.50;1.00;;;;;;5072741;28;20531;-68
2021/08/15 10:09:31;;;;;;;59.33;3.83;;;30.70;1.00;;;;;;5072425;28;20494;-68
2021/08/15 10:11:58;;;;;;;58.97;4.13;;;31.00;1.00;;;;;;5072401;28;20493;-68
2021/08/15 10:14:25;;;;;;;59.60;3.93;;;31.40;1.00;;;;;;5072389;28;20457;-68
2021/08/15 10:16:56;;;;;;;58.10;2.67;;;32.10;1.00;;;;;;5072584;28;20862;-68
2021/08/15 10:19:35;;;;;;;58.70;3.37;;;32.80;1.00;;;;;;5072331;28;20487;-68
2021/08/15 10:22:03;;;;;;;58.07;3.17;;;33.50;1.00;;;;;;5072482;28;20459;-68
2021/08/15 10:24:44;;;;;;;58.20;3.17;;;34.20;1.00;;;;;;5072247;28;20520;-69
2021/08/15 10:27:44;;;;;;;58.30;3.33;;;34.90;1.00;;;;;;5072429;28;20451;-69
2021/08/15 10:30:46;;;;;;;58.57;3.53;;;35.50;1.00;;;;;;5072319;28;20814;-69
2021/08/15 10:33:24;;;;;;;59.20;3.97;;;35.80;1.00;;;;;;5072765;28;20842;-69
2021/08/15 10:36:27;;;;;;;58.57;3.87;;;35.60;1.00;;;;;;5072129;28;20529;-69
2021/08/15 10:38:56;;;;;;;58.40;3.27;;;34.90;1.00;;;;;;5072366;28;20443;-69
2021/08/15 10:41:52;;;;;;;60.33;4.20;;;34.20;1.00;;;;;;5071783;28;20550;-69
2021/08/15 10:44:20;;;;;;;58.47;3.73;;;33.60;1.00;;;;;;5072391;28;20451;-70
2021/08/15 10:47:10;;;;;;;58.20;3.20;;;33.10;1.00;;;;;;5072002;28;20496;-70
2021/08/15 10:50:03;;;;;;;58.47;3.53;;;32.60;1.00;;;;;;5071872;28;20459;-69
2021/08/15 10:52:37;;;;;;;59.23;4.43;;;32.30;1.00;;;;;;5057471;28;20530;-69
2021/08/15 10:55:16;;;;;;;58.87;3.70;;;32.00;1.00;;;;;;5071596;28;20447;-69
2021/08/15 10:57:52;;;;;;;59.87;3.37;;;31.90;1.00;;;;;;5071956;28;20486;-69
2021/08/15 11:00:42;;;;;;;59.70;4.23;;;31.80;1.00;;;;;;5071915;28;20529;-70
2021/08/15 11:03:45;;;;;;;57.70;2.90;;;32.70;1.00;;;;;;5072070;28;20447;-70
2021/08/15 11:06:45;;;;;;;58.87;3.47;;;33.80;1.00;;;;;;5069552;28;20517;-70
2021/08/15 11:09:14;;;;;;;58.47;3.30;;;33.80;1.00;;;;;;5071688;28;20470;-70
2021/08/15 11:12:10;;;;;;;59.07;3.77;;;33.20;1.00;;;;;;5071744;28;20562;-70
2021/08/15 11:14:52;;;;;;;58.97;3.50;;;32.60;1.00;;;;;;5065207;28;20459;-70
2021/08/15 11:17:19;;;;;;;59.00;3.50;;;32.10;1.00;;;;;;5071923;28;20818;-70
2021/08/15 11:19:46;;;;;;;59.77;3.87;;;31.50;1.00;;;;;;5071649;28;20541;-70
2021/08/15 11:22:28;;;;;;;59.00;3.83;;;31.10;1.00;;;;;;5071787;28;20542;-70
2021/08/15 11:25:02;;;;;;;58.77;3.40;;;30.80;1.00;;;;;;5069648;28;20504;-69
2021/08/15 11:27:35;;;;;;;59.97;3.17;;;30.50;1.00;;;;;;5071887;28;20525;-69
2021/08/15 11:30:06;;;;;;;58.77;3.43;;;30.50;1.00;;;;;;5071530;28;20449;-69
2021/08/15 11:32:34;;;;;;;59.30;3.53;;;30.40;1.00;;;;;;5071645;28;20490;-69
2021/08/15 11:35:03;;;;;;;61.23;3.73;;;30.40;1.00;;;;;;5071691;28;20539;-69
2021/08/15 11:37:32;;;;;;;58.80;3.00;;;30.30;1.00;;;;;;5071474;28;20444;-69
2021/08/15 11:40:13;;;;;;;58.37;3.80;;;30.20;1.00;;;;;;5071476;28;20449;-69
2021/08/15 11:42:41;;;;;;;58.70;3.27;;;30.00;1.00;;;;;;5071611;28;20467;-69
2021/08/15 11:45:09;;;;;;;58.10;3.03;;;29.80;1.00;;;;;;5071502;28;20447;-69
2021/08/15 11:47:38;;;;;;;58.70;3.17;;;29.70;1.00;;;;;;5071852;28;20445;-69
2021/08/15 11:50:14;;;;;;;59.67;3.50;;;29.50;1.00;;;;;;5071560;28;20928;-69
2021/08/15 11:52:41;;;;;;;59.27;3.40;;;29.40;1.00;;;;;;5071162;28;20583;-69
2021/08/15 11:55:24;;;;;;;58.93;3.23;;;29.20;1.00;;;;;;5071383;28;20486;-69
2021/08/15 11:57:52;;;;;;;59.60;3.77;;;29.10;1.00;;;;;;5071402;28;20530;-69
2021/08/15 12:00:31;;;;;;;58.23;3.00;;;29.00;1.00;;;;;;5071097;28;20502;-69
2021/08/15 12:03:02;;;;;;;58.60;3.40;;;28.90;1.00;;;;;;5071591;28;20531;-69
2021/08/15 12:05:30;;;;;;;60.17;3.43;;;28.70;1.00;;;;;;5071543;28;20530;-69
2021/08/15 12:08:07;;;;;;;61.47;4.10;;;28.60;1.00;;;;;;5072774;28;20445;-69
2021/08/15 12:10:40;;;;;;;59.10;3.63;;;28.50;1.00;;;;;;5074913;28;20801;-69
2021/08/15 12:13:30;;;;;;;59.93;3.90;;;28.40;1.00;;;;;;5074850;28;21021;-69
2021/08/15 12:16:09;;;;;;;59.73;3.93;;;28.40;1.00;;;;;;5074782;28;20509;-69
2021/08/15 12:18:38;;;;;;;59.27;3.43;;;28.40;1.00;;;;;;5074969;28;20449;-69
2021/08/15 12:21:20;;;;;;;61.63;4.23;;;28.40;1.00;;;;;;5074422;28;20478;-69
2021/08/15 12:24:18;;;;;;;60.90;4.30;;;28.40;1.00;;;;;;5074927;28;20736;-69
2021/08/15 12:26:55;;;;;;;59.07;3.63;;;28.50;1.00;;;;;;5012638;28;20533;-69
2021/08/15 12:29:24;;;;;;;59.37;4.20;;;28.50;1.00;;;;;;5064303;28;20466;-69
2021/08/15 12:32:08;;;;;;;60.17;3.67;;;28.80;1.00;;;;;;5074324;28;20494;-69
2021/08/15 12:34:36;;;;;;;59.00;3.67;;;30.20;1.00;;;;;;5074716;28;20477;-69
2021/08/15 12:37:17;;;;;;;59.90;5.57;;;31.90;1.00;;;;;;5074479;28;20558;-69
2021/08/15 12:39:45;;;;;;;58.77;3.20;;;33.50;1.00;;;;;;5074358;28;20542;-69
2021/08/15 12:42:22;;;;;;;58.80;3.83;;;34.90;1.00;;;;;;5074750;28;20468;-69
2021/08/15 12:44:54;;;;;;;57.57;2.77;;;36.20;1.00;;;;;;5074632;28;20439;-69
2021/08/15 12:47:26;;;;;;;57.60;2.73;;;37.20;1.00;;;;;;5074356;28;20538;-70
2021/08/15 12:50:02;;;;;;;59.60;3.13;;;38.20;1.00;;;;;;5074050;28;20494;-70
2021/08/15 12:52:29;;;;;;;58.17;3.60;;;38.70;1.00;;;;;;5073963;28;20578;-70
2021/08/15 12:55:22;;;;;;;57.57;3.27;;;39.00;1.00;;;;;;5074379;28;20530;-70
2021/08/15 12:57:57;;;;;;;58.93;3.90;;;39.20;1.00;;;;;;5074252;28;20497;-70
2021/08/15 13:00:26;;;;;;;58.10;3.67;;;39.60;1.00;;;;;;5073865;28;20500;-70